createdAt,value
2023-04-18T05:01:14.980Z,500.00
2023-04-18T05:02:14.803Z,500.00
2023-04-18T05:03:14.824Z,500.00
2023-04-18T05:04:15.059Z,500.00
2023-04-18T05:05:14.653Z,500.00
2023-04-18T05:06:14.701Z,500.00
2023-04-18T05:07:14.658Z,400.00
2023-04-18T05:08:14.660Z,400.00
2023-04-18T05:09:14.616Z,400.00
2023-04-18T05:10:14.654Z,400.00
2023-04-18T05:11:14.624Z,400.00
2023-04-18T05:12:14.603Z,400.00
2023-04-18T05:13:14.611Z,400.00
2023-04-18T05:14:14.840Z,400.00
2023-04-18T05:15:14.584Z,400.00
2023-04-18T05:16:14.630Z,400.00
2023-04-18T05:17:14.581Z,400.00
2023-04-18T05:18:14.653Z,400.00
2023-04-18T05:19:14.681Z,400.00
2023-04-18T05:20:14.719Z,400.00
2023-04-18T05:21:14.788Z,400.00
2023-04-18T05:22:14.950Z,400.00
2023-04-18T05:23:14.871Z,400.00
2023-04-18T05:24:15.506Z,400.00
2023-04-18T05:25:14.969Z,400.00
2023-04-18T05:26:14.948Z,400.00
2023-04-18T05:27:17.163Z,400.00
2023-04-18T05:28:14.924Z,400.00
2023-04-18T05:29:14.944Z,400.00
2023-04-18T05:30:14.981Z,400.00
2023-04-18T05:31:15.035Z,400.00
2023-04-18T05:32:14.913Z,400.00
2023-04-18T05:33:14.981Z,400.00
2023-04-18T05:34:15.010Z,446.00
2023-04-18T05:35:15.210Z,487.00
2023-04-18T05:36:14.970Z,500.00
2023-04-18T05:37:15.090Z,503.00
2023-04-18T05:38:15.109Z,513.00
2023-04-18T05:39:14.886Z,501.00
2023-04-18T05:40:15.887Z,505.00
2023-04-18T05:41:14.950Z,500.00
2023-04-18T05:42:14.848Z,500.00
2023-04-18T05:43:14.931Z,500.00
2023-04-18T05:44:14.878Z,502.00
2023-04-18T05:45:14.846Z,504.00
2023-04-18T05:46:15.030Z,500.00
2023-04-18T05:47:14.877Z,499.00
2023-04-18T05:48:14.843Z,502.00
2023-04-18T05:49:14.888Z,500.00
2023-04-18T05:50:14.854Z,500.00
2023-04-18T05:51:14.954Z,503.00
2023-04-18T05:52:15.056Z,500.00
2023-04-18T05:53:14.875Z,501.00
2023-04-18T05:54:14.900Z,502.00
2023-04-18T05:55:14.823Z,502.00
2023-04-18T05:56:14.902Z,503.00
2023-04-18T05:57:14.776Z,505.00
2023-04-18T05:58:14.789Z,509.00
2023-04-18T05:59:14.757Z,507.00
2023-04-18T06:00:14.756Z,507.00
2023-04-18T06:01:15.472Z,512.00
2023-04-18T06:02:15.154Z,510.00
2023-04-18T06:03:14.942Z,511.00
2023-04-18T06:04:15.072Z,511.00
2023-04-18T06:05:14.911Z,509.00
2023-04-18T06:06:14.855Z,513.00
2023-04-18T06:07:15.610Z,508.00
2023-04-18T06:08:14.730Z,510.00
2023-04-18T06:09:23.144Z,514.00
2023-04-18T06:10:14.740Z,515.00
2023-04-18T06:11:14.829Z,516.00
2023-04-18T06:12:14.830Z,516.00
2023-04-18T06:13:14.904Z,515.00
2023-04-18T06:14:15.184Z,517.00
2023-04-18T06:15:14.935Z,518.00
2023-04-18T06:16:15.001Z,519.00
2023-04-18T06:17:14.953Z,519.00
2023-04-18T06:18:14.993Z,520.00
2023-04-18T06:19:15.008Z,519.00
2023-04-18T06:20:15.011Z,519.00
2023-04-18T06:21:15.029Z,519.00
2023-04-18T06:22:15.015Z,518.00
2023-04-18T06:23:14.972Z,518.00
2023-04-18T06:24:15.210Z,521.00
2023-04-18T06:25:14.966Z,522.00
2023-04-18T06:26:14.988Z,521.00
2023-04-18T06:27:27.825Z,521.00
2023-04-18T06:28:15.985Z,521.00
2023-04-18T06:29:14.952Z,522.00
2023-04-18T06:30:14.984Z,521.00
2023-04-18T06:31:15.146Z,523.00
2023-04-18T06:32:14.956Z,524.00
2023-04-18T06:33:14.916Z,525.00
2023-04-18T06:34:15.260Z,524.00
2023-04-18T06:35:14.906Z,524.00
2023-04-18T06:36:14.924Z,520.00
2023-04-18T06:37:14.969Z,519.00
2023-04-18T06:38:14.903Z,519.00
2023-04-18T06:39:14.880Z,518.00
2023-04-18T06:40:14.866Z,517.00
2023-04-18T06:41:15.443Z,516.00
2023-04-18T06:42:14.886Z,516.00
2023-04-18T06:43:14.868Z,518.00
2023-04-18T06:44:14.873Z,516.00
2023-04-18T06:45:14.833Z,515.00
2023-04-18T06:46:14.921Z,515.00
2023-04-18T06:47:14.854Z,513.00
2023-04-18T06:48:14.868Z,512.00
2023-04-18T06:49:14.808Z,511.00
2023-04-18T06:50:14.845Z,512.00
2023-04-18T06:51:14.798Z,510.00
2023-04-18T06:52:14.806Z,507.00
2023-04-18T06:53:14.789Z,511.00
2023-04-18T06:54:14.865Z,505.00
2023-04-18T06:55:14.793Z,506.00
2023-04-18T06:56:14.737Z,507.00
2023-04-18T06:57:14.779Z,505.00
2023-04-18T06:58:14.791Z,511.00
2023-04-18T06:59:14.944Z,510.00
2023-04-18T07:00:14.893Z,513.00
2023-04-18T07:01:14.994Z,512.00
2023-04-18T07:02:14.982Z,514.00
2023-04-18T07:03:15.149Z,521.00
2023-04-18T07:04:15.642Z,517.00
2023-04-18T07:05:15.054Z,524.00
2023-04-18T07:06:15.086Z,525.00
2023-04-18T07:07:15.053Z,522.00
2023-04-18T07:08:15.099Z,518.00
2023-04-18T07:09:15.090Z,507.00
2023-04-18T07:10:15.098Z,509.00
2023-04-18T07:11:15.209Z,517.00
2023-04-18T07:12:15.116Z,502.00
2023-04-18T07:13:15.172Z,503.00
2023-04-18T07:14:15.261Z,503.00
2023-04-18T07:15:15.154Z,503.00
2023-04-18T07:16:15.181Z,500.00
2023-04-18T07:17:15.188Z,503.00
2023-04-18T07:18:23.284Z,500.00
2023-04-18T07:19:16.188Z,500.00
2023-04-18T07:20:15.252Z,500.00
2023-04-18T07:21:15.122Z,500.00
2023-04-18T07:22:15.150Z,501.00
2023-04-18T07:23:15.126Z,501.00
2023-04-18T07:24:15.172Z,508.00
2023-04-18T07:25:15.308Z,500.00
2023-04-18T07:26:15.159Z,502.00
2023-04-18T07:27:15.104Z,515.00
2023-04-18T07:28:15.124Z,516.00
2023-04-18T07:29:15.074Z,563.00
2023-04-18T07:30:15.106Z,637.00
2023-04-18T07:31:15.117Z,661.00
2023-04-18T07:32:15.146Z,699.00
2023-04-18T07:33:15.073Z,727.00
2023-04-18T07:34:15.399Z,684.00
2023-04-18T07:35:15.193Z,683.00
2023-04-18T07:36:15.019Z,703.00
2023-04-18T07:37:15.257Z,727.00
2023-04-18T07:38:15.300Z,725.00
2023-04-18T07:39:15.177Z,728.00
2023-04-18T07:40:15.307Z,734.00
2023-04-18T07:41:15.273Z,729.00
2023-04-18T07:42:15.346Z,690.00
2023-04-18T07:43:15.329Z,690.00
2023-04-18T07:44:15.407Z,678.00
2023-04-18T07:45:15.340Z,707.00
2023-04-18T07:46:15.376Z,736.00
2023-04-18T07:47:15.333Z,705.00
2023-04-18T07:48:15.378Z,725.00
2023-04-18T07:49:15.564Z,741.00
2023-04-18T07:50:15.384Z,746.00
2023-04-18T07:51:15.355Z,695.00
2023-04-18T07:52:15.375Z,704.00
2023-04-18T07:53:15.321Z,731.00
2023-04-18T07:54:15.429Z,736.00
2023-04-18T07:55:15.373Z,735.00
2023-04-18T07:56:15.469Z,725.00
2023-04-18T07:57:15.532Z,720.00
2023-04-18T07:58:15.588Z,706.00
2023-04-18T07:59:15.937Z,721.00
2023-04-18T08:00:15.674Z,698.00
2023-04-18T08:01:15.699Z,694.00
2023-04-18T08:02:15.821Z,695.00
2023-04-18T08:03:16.154Z,692.00
2023-04-18T08:04:16.000Z,694.00
2023-04-18T08:05:15.989Z,686.00
2023-04-18T08:06:16.018Z,694.00
2023-04-18T08:07:16.091Z,696.00
2023-04-18T08:08:16.164Z,703.00
2023-04-18T08:09:16.323Z,701.00
2023-04-18T08:10:16.266Z,708.00
2023-04-18T08:11:16.297Z,705.00
2023-04-18T08:12:16.367Z,705.00
2023-04-18T08:13:16.483Z,696.00
2023-04-18T08:14:16.510Z,701.00
2023-04-18T08:15:16.521Z,696.00
2023-04-18T08:16:17.645Z,691.00
2023-04-18T08:17:16.610Z,672.00
2023-04-18T08:18:16.701Z,679.00
2023-04-18T08:19:16.751Z,663.00
2023-04-18T08:20:16.771Z,651.00
2023-04-18T08:21:16.839Z,650.00
2023-04-18T08:22:16.859Z,646.00
2023-04-18T08:23:16.929Z,645.00
2023-04-18T08:24:16.948Z,645.00
2023-04-18T08:25:17.030Z,642.00
2023-04-18T08:26:17.303Z,648.00
2023-04-18T08:27:17.163Z,649.00
2023-04-18T08:28:17.230Z,640.00
2023-04-18T08:29:17.412Z,645.00
2023-04-18T08:30:17.272Z,643.00
2023-04-18T08:31:17.380Z,649.00
2023-04-18T08:32:17.464Z,649.00
2023-04-18T08:33:17.442Z,654.00
2023-04-18T08:34:17.466Z,827.00
2023-04-18T08:35:17.513Z,939.00
2023-04-18T08:36:17.600Z,883.00
2023-04-18T08:37:17.571Z,838.00
2023-04-18T08:38:17.614Z,799.00
2023-04-18T08:39:17.630Z,781.00
2023-04-18T08:40:27.229Z,772.00
2023-04-18T08:41:17.755Z,774.00
2023-04-18T08:42:17.643Z,774.00
2023-04-18T08:43:17.657Z,779.00
2023-04-18T08:44:18.473Z,797.00
2023-04-18T08:45:18.681Z,774.00
2023-04-18T08:46:17.669Z,783.00
2023-04-18T08:47:17.596Z,791.00
2023-04-18T08:48:17.626Z,810.00
2023-04-18T08:49:17.617Z,844.00
2023-04-18T08:50:17.615Z,863.00
2023-04-18T08:51:17.564Z,862.00
2023-04-18T08:52:17.639Z,869.00
2023-04-18T08:53:17.559Z,875.00
2023-04-18T08:54:17.601Z,882.00
2023-04-18T08:55:17.703Z,901.00
2023-04-18T08:56:17.576Z,772.00
2023-04-18T08:57:17.568Z,500.00
2023-04-18T08:58:17.558Z,420.00
2023-04-18T08:59:17.581Z,403.00
2023-04-18T09:00:17.597Z,400.00
2023-04-18T09:01:17.596Z,400.00
2023-04-18T09:02:17.622Z,451.00
2023-04-18T09:03:17.590Z,468.00
2023-04-18T09:04:17.570Z,500.00
2023-04-18T09:05:17.610Z,517.00
2023-04-18T09:06:17.600Z,499.00
2023-04-18T09:07:17.512Z,552.00
2023-04-18T09:08:17.462Z,550.00
2023-04-18T09:09:17.498Z,588.00
2023-04-18T09:10:17.473Z,606.00
2023-04-18T09:11:17.484Z,585.00
2023-04-18T09:12:17.420Z,633.00
2023-04-18T09:13:17.476Z,678.00
2023-04-18T09:14:17.473Z,733.00
2023-04-18T09:15:17.402Z,758.00
2023-04-18T09:16:17.482Z,910.00
2023-04-18T09:17:17.412Z,1031.00
2023-04-18T09:18:17.442Z,1189.00
2023-04-18T09:19:17.704Z,1202.00
2023-04-18T09:20:17.438Z,1183.00
2023-04-18T09:21:17.423Z,1144.00
2023-04-18T09:22:17.390Z,1197.00
2023-04-18T09:23:17.607Z,1188.00
2023-04-18T09:24:17.360Z,1261.00
2023-04-18T09:25:17.363Z,1292.00
2023-04-18T09:26:17.360Z,1315.00
2023-04-18T09:27:17.365Z,1356.00
2023-04-18T09:28:17.406Z,1371.00
2023-04-18T09:29:17.447Z,1438.00
2023-04-18T09:30:17.482Z,1424.00
2023-04-18T09:31:17.541Z,1413.00
2023-04-18T09:32:17.577Z,1417.00
2023-04-18T09:33:17.636Z,1432.00
2023-04-18T09:34:17.670Z,1501.00
2023-04-18T09:35:17.684Z,1662.00
2023-04-18T09:36:17.710Z,1899.00
2023-04-18T09:37:17.756Z,2057.00
2023-04-18T09:38:17.841Z,2117.00
2023-04-18T09:39:17.823Z,2063.00
2023-04-18T09:40:17.833Z,2016.00
2023-04-18T09:41:20.072Z,2218.00
2023-04-18T09:42:17.884Z,2469.00
2023-04-18T09:43:17.881Z,2771.00
2023-04-18T09:44:17.981Z,2877.00
2023-04-18T09:45:17.824Z,2946.00
2023-04-18T09:46:17.970Z,2970.00
2023-04-18T09:47:17.872Z,2895.00
2023-04-18T09:48:17.809Z,2791.00
2023-04-18T09:49:18.129Z,2860.00
2023-04-18T09:50:17.798Z,2810.00
2023-04-18T09:51:17.883Z,2766.00
2023-04-18T09:52:17.814Z,2890.00
2023-04-18T09:53:20.155Z,2882.00
2023-04-18T09:54:17.773Z,2858.00
2023-04-18T09:55:17.796Z,2804.00
2023-04-18T09:56:17.743Z,2777.00
2023-04-18T09:57:17.845Z,2769.00
2023-04-18T09:58:17.740Z,2752.00
2023-04-18T09:59:18.675Z,2728.00
2023-04-18T10:00:17.750Z,2729.00
2023-04-18T10:01:17.819Z,2727.00
2023-04-18T10:02:17.730Z,2708.00
2023-04-18T10:03:17.870Z,2662.00
2023-04-18T10:04:17.916Z,2663.00
2023-04-18T10:05:20.763Z,2640.00
2023-04-18T10:06:17.752Z,2636.00
2023-04-18T10:07:17.655Z,2589.00
2023-04-18T10:08:17.673Z,2512.00
2023-04-18T10:09:17.639Z,2335.00
2023-04-18T10:10:17.658Z,2276.00
2023-04-18T10:11:19.215Z,2317.00
2023-04-18T10:12:17.736Z,2305.00
2023-04-18T10:13:17.713Z,2240.00
2023-04-18T10:14:17.897Z,2275.00
2023-04-18T10:15:17.765Z,2270.00
2023-04-18T10:16:17.790Z,2248.00
2023-04-18T10:17:17.770Z,2210.00
2023-04-18T10:18:17.845Z,2207.00
2023-04-18T10:19:17.800Z,2004.00
2023-04-18T10:20:17.785Z,1750.00
2023-04-18T10:21:18.020Z,1494.00
2023-04-18T10:22:17.924Z,1258.00
2023-04-18T10:23:17.906Z,1209.00
2023-04-18T10:24:17.967Z,1182.00
2023-04-18T10:25:17.989Z,1183.00
2023-04-18T10:26:18.006Z,1149.00
2023-04-18T10:27:18.069Z,1091.00
2023-04-18T10:28:18.101Z,1045.00
2023-04-18T10:29:18.133Z,962.00
2023-04-18T10:30:18.161Z,898.00
2023-04-18T10:31:18.250Z,798.00
2023-04-18T10:32:18.281Z,809.00
2023-04-18T10:33:27.983Z,844.00
2023-04-18T10:34:19.374Z,797.00
2023-04-18T10:35:18.278Z,761.00
2023-04-18T10:36:18.293Z,661.00
2023-04-18T10:37:18.277Z,575.00
2023-04-18T10:38:18.303Z,555.00
2023-04-18T10:39:18.271Z,470.00
2023-04-18T10:40:18.229Z,430.00
2023-04-18T10:41:18.243Z,485.00
2023-04-18T10:42:18.279Z,501.00
2023-04-18T10:43:18.318Z,500.00
2023-04-18T10:44:18.395Z,501.00
2023-04-18T10:45:18.241Z,500.00
2023-04-18T10:46:31.088Z,502.00
2023-04-18T10:47:19.291Z,502.00
2023-04-18T10:48:18.235Z,501.00
2023-04-18T10:49:18.236Z,492.00
2023-04-18T10:50:18.232Z,482.00
2023-04-18T10:51:18.176Z,487.00
2023-04-18T10:52:18.204Z,548.00
2023-04-18T10:53:18.320Z,600.00
2023-04-18T10:54:18.189Z,653.00
2023-04-18T10:55:18.259Z,733.00
2023-04-18T10:56:18.169Z,809.00
2023-04-18T10:57:18.273Z,883.00
2023-04-18T10:58:18.134Z,952.00
2023-04-18T10:59:18.165Z,1017.00
2023-04-18T11:00:18.100Z,1079.00
2023-04-18T11:01:18.150Z,1148.00
2023-04-18T11:02:18.169Z,1179.00
2023-04-18T11:03:18.250Z,1193.00
2023-04-18T11:04:18.407Z,1226.00
2023-04-18T11:05:18.219Z,1287.00
2023-04-18T11:06:18.328Z,1328.00
2023-04-18T11:07:18.312Z,1466.00
2023-04-18T11:08:18.461Z,1499.00
2023-04-18T11:09:18.486Z,1566.00
2023-04-18T11:10:18.510Z,1613.00
2023-04-18T11:11:18.595Z,1631.00
2023-04-18T11:12:18.555Z,1547.00
2023-04-18T11:13:18.638Z,1466.00
2023-04-18T11:14:18.711Z,1457.00
2023-04-18T11:15:18.746Z,1298.00
2023-04-18T11:16:18.857Z,1363.00
2023-04-18T11:17:18.821Z,1387.00
2023-04-18T11:18:18.906Z,1456.00
2023-04-18T11:19:18.921Z,1469.00
2023-04-18T11:20:19.015Z,1427.00
2023-04-18T11:21:19.070Z,1477.00
2023-04-18T11:22:19.082Z,1322.00
2023-04-18T11:23:19.125Z,1201.00
2023-04-18T11:24:19.202Z,1341.00
2023-04-18T11:25:19.274Z,1439.00
2023-04-18T11:26:19.343Z,1498.00
2023-04-18T11:27:19.411Z,1590.00
2023-04-18T11:28:19.478Z,1645.00
2023-04-18T11:29:19.504Z,1687.00
2023-04-18T11:30:19.552Z,1686.00
2023-04-18T11:31:19.593Z,1548.00
2023-04-18T11:32:19.709Z,1557.00
2023-04-18T11:33:19.952Z,1555.00
2023-04-18T11:34:19.748Z,1603.00
2023-04-18T11:35:19.816Z,1616.00
2023-04-18T11:36:19.955Z,1636.00
2023-04-18T11:37:19.905Z,1630.00
2023-04-18T11:38:20.833Z,1587.00
2023-04-18T11:39:20.007Z,1553.00
2023-04-18T11:40:20.180Z,1490.00
2023-04-18T11:41:20.202Z,1499.00
2023-04-18T11:42:20.147Z,1512.00
2023-04-18T11:43:20.225Z,1503.00
2023-04-18T11:44:20.250Z,1506.00
2023-04-18T11:45:20.360Z,1520.00
2023-04-18T11:46:20.465Z,1484.00
2023-04-18T11:47:20.500Z,1512.00
2023-04-18T11:48:20.460Z,1463.00
2023-04-18T11:49:20.532Z,1426.00
2023-04-18T11:50:20.562Z,1431.00
2023-04-18T11:51:20.632Z,1449.00
2023-04-18T11:52:20.710Z,1519.00
2023-04-18T11:53:20.704Z,1522.00
2023-04-18T11:54:20.801Z,1560.00
2023-04-18T11:55:20.820Z,1571.00
2023-04-18T11:56:20.875Z,1496.00
2023-04-18T11:57:20.898Z,1497.00
2023-04-18T11:58:20.971Z,1534.00
2023-04-18T11:59:20.975Z,1530.00
2023-04-18T12:00:21.064Z,1466.00
2023-04-18T12:01:21.057Z,1455.00
2023-04-18T12:02:21.260Z,1471.00
2023-04-18T12:03:21.427Z,1457.00
2023-04-18T12:04:21.524Z,1439.00
2023-04-18T12:05:21.622Z,1455.00
2023-04-18T12:06:21.332Z,1403.00
2023-04-18T12:07:21.347Z,1412.00
2023-04-18T12:08:21.400Z,1382.00
2023-04-18T12:09:21.536Z,1326.00
2023-04-18T12:10:21.515Z,1255.00
2023-04-18T12:11:21.589Z,1265.00
2023-04-18T12:12:21.603Z,1299.00
2023-04-18T12:13:21.655Z,1330.00
2023-04-18T12:14:21.848Z,1208.00
2023-04-18T12:15:21.767Z,1035.00
2023-04-18T12:16:21.854Z,976.00
2023-04-18T12:17:21.859Z,982.00
2023-04-18T12:18:21.868Z,989.00
2023-04-18T12:19:21.930Z,957.00
2023-04-18T12:20:21.924Z,967.00
2023-04-18T12:21:22.010Z,951.00
2023-04-18T12:22:22.084Z,924.00
2023-04-18T12:23:22.097Z,857.00
2023-04-18T12:24:22.176Z,847.00
2023-04-18T12:25:24.388Z,785.00
2023-04-18T12:26:22.201Z,785.00
2023-04-18T12:27:22.196Z,733.00
2023-04-18T12:28:22.197Z,673.00
2023-04-18T12:29:22.214Z,630.00
2023-04-18T12:30:22.168Z,612.00
2023-04-18T12:31:22.234Z,622.00
2023-04-18T12:32:22.214Z,629.00
2023-04-18T12:33:22.206Z,635.00
2023-04-18T12:34:22.165Z,611.00
2023-04-18T12:35:22.120Z,606.00
2023-04-18T12:36:22.132Z,639.00
2023-04-18T12:37:22.122Z,630.00
2023-04-18T12:38:22.180Z,658.00
2023-04-18T12:39:22.160Z,655.00
2023-04-18T12:40:22.160Z,671.00
2023-04-18T12:41:22.202Z,688.00
2023-04-18T12:42:22.250Z,662.00
2023-04-18T12:43:22.305Z,690.00
2023-04-18T12:44:22.390Z,703.00
2023-04-18T12:45:22.542Z,673.00
2023-04-18T12:46:22.498Z,749.00
2023-04-18T12:47:22.554Z,685.00
2023-04-18T12:48:22.563Z,669.00
2023-04-18T12:49:22.845Z,707.00
2023-04-18T12:50:22.753Z,667.00
2023-04-18T12:51:22.779Z,666.00
2023-04-18T12:52:22.842Z,700.00
2023-04-18T12:53:22.869Z,718.00
2023-04-18T12:54:22.926Z,746.00
2023-04-18T12:55:23.073Z,743.00
2023-04-18T12:56:23.089Z,699.00
2023-04-18T12:57:23.043Z,668.00
2023-04-18T12:58:23.125Z,706.00
2023-04-18T12:59:23.192Z,714.00
2023-04-18T13:00:23.244Z,709.00
2023-04-18T13:01:23.398Z,701.00
2023-04-18T13:02:23.483Z,680.00
2023-04-18T13:03:23.590Z,662.00
2023-04-18T13:04:23.580Z,686.00
2023-04-18T13:05:23.546Z,740.00
2023-04-18T13:06:23.543Z,715.00
2023-04-18T13:07:23.616Z,710.00
2023-04-18T13:08:23.796Z,756.00
2023-04-18T13:09:23.784Z,704.00
2023-04-18T13:10:23.729Z,647.00
2023-04-18T13:11:23.828Z,674.00
2023-04-18T13:12:23.881Z,646.00
2023-04-18T13:13:23.909Z,623.00
2023-04-18T13:14:23.995Z,559.00
2023-04-18T13:15:24.050Z,549.00
2023-04-18T13:16:24.121Z,540.00
2023-04-18T13:17:24.164Z,562.00
2023-04-18T13:18:24.164Z,561.00
2023-04-18T13:19:24.184Z,559.00
2023-04-18T13:20:24.258Z,574.00
2023-04-18T13:21:24.300Z,525.00
2023-04-18T13:22:24.390Z,520.00
2023-04-18T13:23:24.468Z,508.00
2023-04-18T13:24:24.474Z,524.00
2023-04-18T13:25:24.549Z,500.00
2023-04-18T13:26:24.582Z,500.00
2023-04-18T13:27:24.638Z,503.00
2023-04-18T13:28:24.706Z,500.00
2023-04-18T13:29:24.752Z,510.00
2023-04-18T13:30:24.815Z,508.00
2023-04-18T13:31:24.891Z,511.00
2023-04-18T13:32:24.961Z,516.00
2023-04-18T13:33:24.983Z,557.00
2023-04-18T13:34:25.033Z,562.00
2023-04-18T13:35:25.104Z,584.00
2023-04-18T13:36:25.165Z,604.00
2023-04-18T13:37:25.215Z,636.00
2023-04-18T13:38:25.289Z,664.00
2023-04-18T13:39:25.361Z,759.00
2023-04-18T13:40:25.391Z,790.00
2023-04-18T13:41:25.462Z,793.00
2023-04-18T13:42:25.456Z,791.00
2023-04-18T13:43:25.531Z,764.00
2023-04-18T13:44:25.600Z,862.00
2023-04-18T13:45:25.715Z,898.00
2023-04-18T13:46:25.816Z,893.00
2023-04-18T13:47:25.777Z,875.00
2023-04-18T13:48:25.910Z,889.00
2023-04-18T13:49:25.945Z,963.00
2023-04-18T13:50:25.934Z,975.00
2023-04-18T13:51:25.995Z,988.00
2023-04-18T13:52:26.083Z,971.00
2023-04-18T13:53:26.154Z,945.00
2023-04-18T13:54:26.077Z,935.00
2023-04-18T13:55:26.116Z,1020.00
2023-04-18T13:56:26.116Z,1126.00
2023-04-18T13:57:26.186Z,1173.00
2023-04-18T13:58:26.256Z,1190.00
2023-04-18T13:59:26.205Z,1239.00
2023-04-18T14:00:26.270Z,1278.00
2023-04-18T14:01:26.276Z,1317.00
2023-04-18T14:02:26.460Z,1347.00
2023-04-18T14:03:26.418Z,1381.00
2023-04-18T14:04:26.543Z,1410.00
2023-04-18T14:05:26.355Z,1430.00
2023-04-18T14:06:26.375Z,1415.00
2023-04-18T14:07:26.368Z,1436.00
2023-04-18T14:08:26.379Z,1436.00
2023-04-18T14:09:26.413Z,1480.00
2023-04-18T14:10:26.447Z,1551.00
2023-04-18T14:11:26.466Z,1627.00
2023-04-18T14:12:26.483Z,1639.00
2023-04-18T14:13:26.474Z,1681.00
2023-04-18T14:14:27.153Z,1738.00
2023-04-18T14:15:26.545Z,1778.00
2023-04-18T14:16:26.499Z,1782.00
2023-04-18T14:17:26.534Z,1825.00
2023-04-18T14:18:26.541Z,1845.00
2023-04-18T14:19:26.586Z,1850.00
2023-04-18T14:20:26.678Z,1899.00
2023-04-18T14:21:26.649Z,1966.00
2023-04-18T14:22:26.701Z,1979.00
2023-04-18T14:23:26.694Z,2012.00
2023-04-18T14:24:26.697Z,2035.00
2023-04-18T14:25:26.738Z,2055.00
2023-04-18T14:26:26.815Z,2062.00
2023-04-18T14:27:26.804Z,2077.00
2023-04-18T14:28:26.779Z,2088.00
2023-04-18T14:29:26.810Z,2116.00
2023-04-18T14:30:26.829Z,2122.00
2023-04-18T14:31:26.817Z,2131.00
2023-04-18T14:32:26.887Z,2124.00
2023-04-18T14:33:26.983Z,2157.00
2023-04-18T14:34:27.084Z,2162.00
2023-04-18T14:35:27.217Z,2153.00
2023-04-18T14:36:27.265Z,2167.00
2023-04-18T14:37:27.309Z,2146.00
2023-04-18T14:38:27.295Z,2159.00
2023-04-18T14:39:27.309Z,2173.00
2023-04-18T14:40:27.288Z,2166.00
2023-04-18T14:41:27.288Z,2187.00
2023-04-18T14:42:27.266Z,2175.00
2023-04-18T14:43:27.276Z,2197.00
2023-04-18T14:44:27.281Z,2201.00
2023-04-18T14:45:27.329Z,2185.00
2023-04-18T14:46:27.337Z,2158.00
2023-04-18T14:47:27.412Z,2158.00
2023-04-18T14:48:27.383Z,2161.00
2023-04-18T14:49:27.337Z,2170.00
2023-04-18T14:50:27.374Z,2173.00
2023-04-18T14:51:27.329Z,2167.00
2023-04-18T14:52:27.361Z,2184.00
2023-04-18T14:53:27.426Z,2179.00
2023-04-18T14:54:27.493Z,2171.00
2023-04-18T14:55:27.677Z,2170.00
2023-04-18T14:56:27.581Z,2168.00
2023-04-18T14:57:30.231Z,2173.00
2023-04-18T14:58:27.810Z,2168.00
2023-04-18T14:59:27.827Z,2166.00
2023-04-18T15:00:27.816Z,2183.00
2023-04-18T15:01:27.836Z,2169.00
2023-04-18T15:02:28.048Z,2170.00
2023-04-18T15:03:28.050Z,2164.00
2023-04-18T15:04:28.115Z,2161.00
2023-04-18T15:05:27.899Z,2157.00
2023-04-18T15:06:27.994Z,2161.00
2023-04-18T15:07:28.016Z,2175.00
2023-04-18T15:08:28.083Z,2168.00
2023-04-18T15:09:28.200Z,2163.00
2023-04-18T15:10:28.173Z,2166.00
2023-04-18T15:11:28.262Z,2129.00
2023-04-18T15:12:28.259Z,2161.00
2023-04-18T15:13:28.302Z,2165.00
2023-04-18T15:14:28.354Z,2158.00
2023-04-18T15:15:28.426Z,2157.00
2023-04-18T15:16:28.522Z,2144.00
2023-04-18T15:17:28.531Z,2144.00
2023-04-18T15:18:28.537Z,2143.00
2023-04-18T15:19:28.651Z,2151.00
2023-04-18T15:20:28.677Z,2135.00
2023-04-18T15:21:28.713Z,2147.00
2023-04-18T15:22:28.806Z,2138.00
2023-04-18T15:23:28.862Z,2170.00
2023-04-18T15:24:28.920Z,2137.00
2023-04-18T15:25:28.948Z,2139.00
2023-04-18T15:26:30.462Z,2148.00
2023-04-18T15:27:28.938Z,2165.00
2023-04-18T15:28:28.940Z,2144.00
2023-04-18T15:29:28.963Z,2138.00
2023-04-18T15:30:28.928Z,2154.00
2023-04-18T15:31:28.982Z,2157.00
2023-04-18T15:32:28.956Z,2159.00
2023-04-18T15:33:28.928Z,2151.00
2023-04-18T15:34:28.889Z,2150.00
2023-04-18T15:35:28.920Z,2158.00
2023-04-18T15:36:28.872Z,2147.00
2023-04-18T15:37:28.933Z,2145.00
2023-04-18T15:38:29.670Z,2140.00
2023-04-18T15:39:28.890Z,2152.00
2023-04-18T15:40:28.874Z,2138.00
2023-04-18T15:41:28.861Z,2128.00
2023-04-18T15:42:28.839Z,2132.00
2023-04-18T15:43:28.859Z,2126.00
2023-04-18T15:44:28.860Z,2131.00
2023-04-18T15:45:28.843Z,2120.00
2023-04-18T15:46:28.893Z,2117.00
2023-04-18T15:47:28.829Z,2112.00
2023-04-18T15:48:28.810Z,2125.00
2023-04-18T15:49:28.807Z,2117.00
2023-04-18T15:50:29.216Z,2113.00
2023-04-18T15:51:28.767Z,2108.00
2023-04-18T15:52:28.812Z,2116.00
2023-04-18T15:53:28.784Z,2113.00
2023-04-18T15:54:28.803Z,2112.00
2023-04-18T15:55:28.791Z,2117.00
2023-04-18T15:56:29.382Z,2117.00
2023-04-18T15:57:28.756Z,2090.00
2023-04-18T15:58:28.762Z,2099.00
2023-04-18T15:59:28.746Z,2091.00
2023-04-18T16:00:28.764Z,2087.00
2023-04-18T16:01:28.754Z,2094.00
2023-04-18T16:02:28.833Z,2097.00
2023-04-18T16:03:28.991Z,2106.00
2023-04-18T16:04:29.002Z,2092.00
2023-04-18T16:05:28.869Z,2074.00
2023-04-18T16:06:28.866Z,2085.00
2023-04-18T16:07:28.873Z,2058.00
2023-04-18T16:08:29.912Z,2058.00
2023-04-18T16:09:29.017Z,2054.00
2023-04-18T16:10:29.011Z,2067.00
2023-04-18T16:11:29.043Z,2069.00
2023-04-18T16:12:29.034Z,2072.00
2023-04-18T16:13:29.107Z,2066.00
2023-04-18T16:14:29.009Z,2060.00
2023-04-18T16:15:29.051Z,2068.00
2023-04-18T16:16:29.203Z,2067.00
2023-04-18T16:17:29.230Z,2057.00
2023-04-18T16:18:29.295Z,2059.00
2023-04-18T16:19:29.393Z,2067.00
2023-04-18T16:20:29.338Z,2055.00
2023-04-18T16:21:29.299Z,2043.00
2023-04-18T16:22:29.298Z,2056.00
2023-04-18T16:23:29.334Z,2043.00
2023-04-18T16:24:29.427Z,2059.00
2023-04-18T16:25:29.399Z,2042.00
2023-04-18T16:26:29.450Z,2045.00
2023-04-18T16:27:29.415Z,2050.00
2023-04-18T16:28:29.370Z,2022.00
2023-04-18T16:29:29.473Z,2044.00
2023-04-18T16:30:29.443Z,2051.00
2023-04-18T16:31:29.530Z,2034.00
2023-04-18T16:32:29.513Z,2036.00
2023-04-18T16:33:29.653Z,2033.00
2023-04-18T16:34:29.426Z,2045.00
2023-04-18T16:35:29.543Z,2013.00
2023-04-18T16:36:29.555Z,2034.00
2023-04-18T16:37:29.664Z,2034.00
2023-04-18T16:38:29.681Z,2050.00
2023-04-18T16:39:29.728Z,2030.00
2023-04-18T16:40:29.670Z,2019.00
2023-04-18T16:41:29.653Z,2023.00
2023-04-18T16:42:29.652Z,2030.00
2023-04-18T16:43:29.750Z,2023.00
2023-04-18T16:44:29.777Z,2031.00
2023-04-18T16:45:29.900Z,2011.00
2023-04-18T16:46:29.880Z,2017.00
2023-04-18T16:47:29.818Z,2013.00
2023-04-18T16:48:29.792Z,2010.00
2023-04-18T16:49:29.840Z,2006.00
2023-04-18T16:50:29.874Z,2005.00
2023-04-18T16:51:30.028Z,2016.00
2023-04-18T16:52:29.991Z,2017.00
2023-04-18T16:53:30.020Z,1988.00
2023-04-18T16:54:29.991Z,2010.00
2023-04-18T16:55:29.962Z,1987.00
2023-04-18T16:56:29.962Z,1986.00
2023-04-18T16:57:30.079Z,1996.00
2023-04-18T16:58:30.029Z,1998.00
2023-04-18T16:59:30.107Z,1982.00
2023-04-18T17:00:30.078Z,2000.00
